sensor_id;sensor_type;location;lat;lon;timestamp;P1;durP1;ratioP1;P2;durP2;ratioP2
56824;SDS011;42705;50.326;18.772;2023-05-13T00:02:14;10.60;;;5.90;;
56824;SDS011;42705;50.326;18.772;2023-05-13T00:07:36;9.20;;;5.80;;
56824;SDS011;42705;50.326;18.772;2023-05-13T00:12:58;10.10;;;6.00;;
56824;SDS011;42705;50.326;18.772;2023-05-13T00:18:21;10.00;;;5.50;;
56824;SDS011;42705;50.326;18.772;2023-05-13T00:23:43;11.80;;;6.20;;
56824;SDS011;42705;50.326;18.772;2023-05-13T00:29:05;10.40;;;5.20;;
56824;SDS011;42705;50.326;18.772;2023-05-13T00:34:27;13.70;;;5.60;;
56824;SDS011;42705;50.326;18.772;2023-05-13T00:39:49;13.60;;;5.90;;
56824;SDS011;42705;50.326;18.772;2023-05-13T00:45:12;10.80;;;5.40;;
56824;SDS011;42705;50.326;18.772;2023-05-13T00:50:34;15.40;;;5.70;;
56824;SDS011;42705;50.326;18.772;2023-05-13T00:55:56;8.60;;;5.60;;
56824;SDS011;42705;50.326;18.772;2023-05-13T01:07:26;9.70;;;5.90;;
56824;SDS011;42705;50.326;18.772;2023-05-13T01:12:57;12.50;;;6.90;;
56824;SDS011;42705;50.326;18.772;2023-05-13T01:18:24;10.40;;;7.10;;
56824;SDS011;42705;50.326;18.772;2023-05-13T01:23:51;10.70;;;5.60;;
56824;SDS011;42705;50.326;18.772;2023-05-13T01:29:14;11.80;;;5.20;;
56824;SDS011;42705;50.326;18.772;2023-05-13T01:40:00;13.40;;;5.60;;
56824;SDS011;42705;50.326;18.772;2023-05-13T01:45:26;8.60;;;5.30;;
56824;SDS011;42705;50.326;18.772;2023-05-13T01:50:51;11.50;;;6.00;;
56824;SDS011;42705;50.326;18.772;2023-05-13T02:01:37;16.70;;;6.50;;
56824;SDS011;42705;50.326;18.772;2023-05-13T02:07:00;10.80;;;5.90;;
56824;SDS011;42705;50.326;18.772;2023-05-13T02:12:26;15.50;;;6.20;;
56824;SDS011;42705;50.326;18.772;2023-05-13T02:23:06;11.80;;;5.90;;
56824;SDS011;42705;50.326;18.772;2023-05-13T02:28:29;12.10;;;6.30;;
56824;SDS011;42705;50.326;18.772;2023-05-13T02:33:51;12.10;;;6.70;;
56824;SDS011;42705;50.326;18.772;2023-05-13T02:39:13;24.50;;;8.70;;
56824;SDS011;42705;50.326;18.772;2023-05-13T02:44:35;16.60;;;8.80;;
56824;SDS011;42705;50.326;18.772;2023-05-13T02:49:57;19.60;;;9.20;;
56824;SDS011;42705;50.326;18.772;2023-05-13T02:55:21;21.30;;;9.50;;
56824;SDS011;42705;50.326;18.772;2023-05-13T03:00:43;23.20;;;9.60;;
56824;SDS011;42705;50.326;18.772;2023-05-13T03:06:05;23.10;;;9.20;;
56824;SDS011;42705;50.326;18.772;2023-05-13T03:11:27;20.00;;;9.10;;
56824;SDS011;42705;50.326;18.772;2023-05-13T03:16:49;23.60;;;9.80;;
56824;SDS011;42705;50.326;18.772;2023-05-13T03:22:12;26.50;;;11.60;;
56824;SDS011;42705;50.326;18.772;2023-05-13T03:27:34;20.60;;;10.60;;
56824;SDS011;42705;50.326;18.772;2023-05-13T03:32:56;21.30;;;9.60;;
56824;SDS011;42705;50.326;18.772;2023-05-13T03:38:19;18.80;;;8.30;;
56824;SDS011;42705;50.326;18.772;2023-05-13T03:43:42;17.10;;;7.50;;
56824;SDS011;42705;50.326;18.772;2023-05-13T03:49:05;14.10;;;6.60;;
56824;SDS011;42705;50.326;18.772;2023-05-13T03:54:27;16.50;;;6.90;;
56824;SDS011;42705;50.326;18.772;2023-05-13T03:59:49;10.80;;;6.20;;
56824;SDS011;42705;50.326;18.772;2023-05-13T04:05:11;11.90;;;6.40;;
56824;SDS011;42705;50.326;18.772;2023-05-13T04:10:34;10.30;;;6.10;;
56824;SDS011;42705;50.326;18.772;2023-05-13T04:15:56;9.10;;;5.80;;
56824;SDS011;42705;50.326;18.772;2023-05-13T04:21:18;11.70;;;6.10;;
56824;SDS011;42705;50.326;18.772;2023-05-13T04:26:40;9.60;;;6.40;;
56824;SDS011;42705;50.326;18.772;2023-05-13T04:32:03;9.90;;;5.80;;
56824;SDS011;42705;50.326;18.772;2023-05-13T04:37:26;9.20;;;6.00;;
56824;SDS011;42705;50.326;18.772;2023-05-13T04:42:51;10.70;;;6.80;;
56824;SDS011;42705;50.326;18.772;2023-05-13T04:48:19;13.40;;;6.70;;
56824;SDS011;42705;50.326;18.772;2023-05-13T04:53:40;10.40;;;6.40;;
56824;SDS011;42705;50.326;18.772;2023-05-13T05:04:26;13.40;;;6.80;;
56824;SDS011;42705;50.326;18.772;2023-05-13T05:09:48;16.70;;;7.40;;
56824;SDS011;42705;50.326;18.772;2023-05-13T05:15:10;12.10;;;7.40;;
56824;SDS011;42705;50.326;18.772;2023-05-13T05:20:37;13.50;;;7.80;;
56824;SDS011;42705;50.326;18.772;2023-05-13T05:26:01;14.40;;;7.10;;
56824;SDS011;42705;50.326;18.772;2023-05-13T05:31:25;11.50;;;7.10;;
56824;SDS011;42705;50.326;18.772;2023-05-13T05:36:49;17.20;;;7.60;;
56824;SDS011;42705;50.326;18.772;2023-05-13T05:42:12;12.10;;;7.00;;
56824;SDS011;42705;50.326;18.772;2023-05-13T05:47:34;14.80;;;7.20;;
56824;SDS011;42705;50.326;18.772;2023-05-13T05:52:57;14.60;;;7.50;;
56824;SDS011;42705;50.326;18.772;2023-05-13T06:03:41;11.90;;;7.70;;
56824;SDS011;42705;50.326;18.772;2023-05-13T06:09:03;15.30;;;7.80;;
56824;SDS011;42705;50.326;18.772;2023-05-13T06:14:25;14.60;;;8.40;;
56824;SDS011;42705;50.326;18.772;2023-05-13T06:19:47;14.40;;;8.50;;
56824;SDS011;42705;50.326;18.772;2023-05-13T06:25:09;14.40;;;7.90;;
56824;SDS011;42705;50.326;18.772;2023-05-13T06:30:31;13.00;;;8.40;;
56824;SDS011;42705;50.326;18.772;2023-05-13T06:35:53;15.40;;;9.30;;
56824;SDS011;42705;50.326;18.772;2023-05-13T06:41:16;16.10;;;9.00;;
56824;SDS011;42705;50.326;18.772;2023-05-13T06:46:39;12.80;;;7.60;;
56824;SDS011;42705;50.326;18.772;2023-05-13T06:52:01;9.60;;;7.40;;
56824;SDS011;42705;50.326;18.772;2023-05-13T06:57:23;11.70;;;6.60;;
56824;SDS011;42705;50.326;18.772;2023-05-13T07:02:45;10.60;;;6.70;;
56824;SDS011;42705;50.326;18.772;2023-05-13T07:08:07;9.50;;;5.20;;
56824;SDS011;42705;50.326;18.772;2023-05-13T07:13:29;7.90;;;4.70;;
56824;SDS011;42705;50.326;18.772;2023-05-13T07:18:54;6.60;;;3.50;;
56824;SDS011;42705;50.326;18.772;2023-05-13T07:24:16;7.40;;;3.30;;
56824;SDS011;42705;50.326;18.772;2023-05-13T07:29:37;5.10;;;3.20;;
56824;SDS011;42705;50.326;18.772;2023-05-13T07:34:59;5.10;;;3.10;;
56824;SDS011;42705;50.326;18.772;2023-05-13T07:40:21;4.20;;;2.70;;
56824;SDS011;42705;50.326;18.772;2023-05-13T07:45:43;4.10;;;2.90;;
56824;SDS011;42705;50.326;18.772;2023-05-13T07:51:05;6.10;;;2.90;;
56824;SDS011;42705;50.326;18.772;2023-05-13T07:56:27;3.10;;;2.60;;
56824;SDS011;42705;50.326;18.772;2023-05-13T08:01:49;7.00;;;2.70;;
56824;SDS011;42705;50.326;18.772;2023-05-13T08:07:11;8.00;;;2.90;;
56824;SDS011;42705;50.326;18.772;2023-05-13T08:12:33;5.40;;;2.70;;
56824;SDS011;42705;50.326;18.772;2023-05-13T08:17:55;4.60;;;2.50;;
56824;SDS011;42705;50.326;18.772;2023-05-13T08:23:17;4.20;;;2.60;;
56824;SDS011;42705;50.326;18.772;2023-05-13T08:28:38;3.40;;;2.80;;
56824;SDS011;42705;50.326;18.772;2023-05-13T08:34:01;2.60;;;2.40;;
56824;SDS011;42705;50.326;18.772;2023-05-13T08:39:23;5.80;;;2.50;;
56824;SDS011;42705;50.326;18.772;2023-05-13T08:44:45;4.30;;;2.40;;
56824;SDS011;42705;50.326;18.772;2023-05-13T08:55:30;4.60;;;2.60;;
56824;SDS011;42705;50.326;18.772;2023-05-13T09:00:51;4.10;;;2.00;;
56824;SDS011;42705;50.326;18.772;2023-05-13T09:06:16;4.40;;;2.50;;
56824;SDS011;42705;50.326;18.772;2023-05-13T09:11:39;4.00;;;2.40;;
56824;SDS011;42705;50.326;18.772;2023-05-13T09:17:01;6.80;;;2.50;;
56824;SDS011;42705;50.326;18.772;2023-05-13T09:22:23;4.20;;;2.90;;
56824;SDS011;42705;50.326;18.772;2023-05-13T09:27:46;6.80;;;3.20;;
56824;SDS011;42705;50.326;18.772;2023-05-13T09:33:10;4.40;;;2.50;;
56824;SDS011;42705;50.326;18.772;2023-05-13T09:38:35;4.40;;;2.50;;
56824;SDS011;42705;50.326;18.772;2023-05-13T09:44:02;6.30;;;3.10;;
56824;SDS011;42705;50.326;18.772;2023-05-13T09:49:25;4.40;;;2.40;;
56824;SDS011;42705;50.326;18.772;2023-05-13T09:54:47;10.00;;;2.90;;
56824;SDS011;42705;50.326;18.772;2023-05-13T10:00:09;3.90;;;2.60;;
56824;SDS011;42705;50.326;18.772;2023-05-13T10:05:34;4.90;;;2.20;;
56824;SDS011;42705;50.326;18.772;2023-05-13T10:10:57;5.10;;;2.20;;
56824;SDS011;42705;50.326;18.772;2023-05-13T10:16:21;6.00;;;2.10;;
56824;SDS011;42705;50.326;18.772;2023-05-13T10:21:44;6.60;;;2.30;;
56824;SDS011;42705;50.326;18.772;2023-05-13T10:27:06;5.70;;;2.50;;
56824;SDS011;42705;50.326;18.772;2023-05-13T10:32:29;6.20;;;2.50;;
56824;SDS011;42705;50.326;18.772;2023-05-13T10:43:32;4.50;;;2.30;;
56824;SDS011;42705;50.326;18.772;2023-05-13T10:48:56;6.10;;;1.90;;
56824;SDS011;42705;50.326;18.772;2023-05-13T10:54:21;5.00;;;1.50;;
56824;SDS011;42705;50.326;18.772;2023-05-13T11:05:37;5.90;;;1.60;;
56824;SDS011;42705;50.326;18.772;2023-05-13T11:16:50;4.30;;;1.50;;
56824;SDS011;42705;50.326;18.772;2023-05-13T11:27:42;3.50;;;1.60;;
56824;SDS011;42705;50.326;18.772;2023-05-13T11:33:04;7.50;;;1.70;;
56824;SDS011;42705;50.326;18.772;2023-05-13T11:38:34;4.10;;;1.70;;
56824;SDS011;42705;50.326;18.772;2023-05-13T11:44:05;7.40;;;1.90;;
56824;SDS011;42705;50.326;18.772;2023-05-13T11:49:43;7.90;;;1.70;;
56824;SDS011;42705;50.326;18.772;2023-05-13T11:55:07;4.20;;;1.80;;
56824;SDS011;42705;50.326;18.772;2023-05-13T12:00:33;3.80;;;1.60;;
56824;SDS011;42705;50.326;18.772;2023-05-13T12:06:01;4.10;;;1.60;;
56824;SDS011;42705;50.326;18.772;2023-05-13T12:11:24;3.20;;;1.60;;
56824;SDS011;42705;50.326;18.772;2023-05-13T12:16:47;3.80;;;1.60;;
56824;SDS011;42705;50.326;18.772;2023-05-13T12:22:10;3.80;;;1.90;;
56824;SDS011;42705;50.326;18.772;2023-05-13T12:27:32;3.10;;;1.90;;
56824;SDS011;42705;50.326;18.772;2023-05-13T12:32:57;6.00;;;2.30;;
56824;SDS011;42705;50.326;18.772;2023-05-13T12:38:22;5.10;;;2.70;;
56824;SDS011;42705;50.326;18.772;2023-05-13T12:43:45;4.20;;;2.50;;
56824;SDS011;42705;50.326;18.772;2023-05-13T12:49:07;3.90;;;2.60;;
56824;SDS011;42705;50.326;18.772;2023-05-13T12:54:29;3.90;;;2.50;;
56824;SDS011;42705;50.326;18.772;2023-05-13T12:59:51;5.50;;;2.60;;
56824;SDS011;42705;50.326;18.772;2023-05-13T13:05:13;4.70;;;2.50;;
56824;SDS011;42705;50.326;18.772;2023-05-13T13:10:35;4.10;;;2.70;;
56824;SDS011;42705;50.326;18.772;2023-05-13T13:15:57;3.80;;;2.60;;
56824;SDS011;42705;50.326;18.772;2023-05-13T13:21:23;5.60;;;2.90;;
56824;SDS011;42705;50.326;18.772;2023-05-13T13:26:45;4.20;;;2.60;;
56824;SDS011;42705;50.326;18.772;2023-05-13T13:32:07;3.70;;;2.90;;
56824;SDS011;42705;50.326;18.772;2023-05-13T13:37:28;7.10;;;2.80;;
56824;SDS011;42705;50.326;18.772;2023-05-13T13:42:51;4.00;;;2.70;;
56824;SDS011;42705;50.326;18.772;2023-05-13T13:48:13;3.80;;;2.90;;
56824;SDS011;42705;50.326;18.772;2023-05-13T13:53:35;8.60;;;3.20;;
56824;SDS011;42705;50.326;18.772;2023-05-13T13:58:57;3.00;;;2.50;;
56824;SDS011;42705;50.326;18.772;2023-05-13T14:04:19;6.50;;;3.50;;
56824;SDS011;42705;50.326;18.772;2023-05-13T14:09:44;3.50;;;2.20;;
56824;SDS011;42705;50.326;18.772;2023-05-13T14:15:06;8.30;;;2.70;;
56824;SDS011;42705;50.326;18.772;2023-05-13T14:20:29;6.00;;;2.50;;
56824;SDS011;42705;50.326;18.772;2023-05-13T14:25:51;7.20;;;2.60;;
56824;SDS011;42705;50.326;18.772;2023-05-13T14:31:13;6.50;;;2.60;;
56824;SDS011;42705;50.326;18.772;2023-05-13T14:36:36;7.30;;;2.60;;
56824;SDS011;42705;50.326;18.772;2023-05-13T14:47:21;6.50;;;2.60;;
56824;SDS011;42705;50.326;18.772;2023-05-13T14:52:43;5.90;;;2.40;;
56824;SDS011;42705;50.326;18.772;2023-05-13T14:58:05;6.40;;;4.40;;
56824;SDS011;42705;50.326;18.772;2023-05-13T15:03:30;2.50;;;2.00;;
56824;SDS011;42705;50.326;18.772;2023-05-13T15:08:53;4.20;;;1.90;;
56824;SDS011;42705;50.326;18.772;2023-05-13T15:14:16;6.00;;;3.40;;
56824;SDS011;42705;50.326;18.772;2023-05-13T15:19:38;6.60;;;3.00;;
56824;SDS011;42705;50.326;18.772;2023-05-13T15:25:01;5.00;;;2.40;;
56824;SDS011;42705;50.326;18.772;2023-05-13T15:30:22;5.30;;;2.90;;
56824;SDS011;42705;50.326;18.772;2023-05-13T15:35:44;8.20;;;6.20;;
56824;SDS011;42705;50.326;18.772;2023-05-13T15:41:07;4.70;;;3.20;;
56824;SDS011;42705;50.326;18.772;2023-05-13T15:46:28;5.70;;;2.50;;
56824;SDS011;42705;50.326;18.772;2023-05-13T15:51:53;6.60;;;2.00;;
56824;SDS011;42705;50.326;18.772;2023-05-13T15:57:16;3.90;;;2.20;;
56824;SDS011;42705;50.326;18.772;2023-05-13T16:02:39;6.70;;;2.40;;
56824;SDS011;42705;50.326;18.772;2023-05-13T16:08:04;8.10;;;2.20;;
56824;SDS011;42705;50.326;18.772;2023-05-13T16:13:26;5.50;;;2.30;;
56824;SDS011;42705;50.326;18.772;2023-05-13T16:18:50;3.50;;;1.80;;
56824;SDS011;42705;50.326;18.772;2023-05-13T16:24:12;2.80;;;1.60;;
56824;SDS011;42705;50.326;18.772;2023-05-13T16:29:34;6.20;;;2.90;;
56824;SDS011;42705;50.326;18.772;2023-05-13T16:34:56;3.10;;;1.90;;
56824;SDS011;42705;50.326;18.772;2023-05-13T16:40:18;3.80;;;1.90;;
56824;SDS011;42705;50.326;18.772;2023-05-13T16:45:40;4.80;;;2.20;;
56824;SDS011;42705;50.326;18.772;2023-05-13T16:51:04;3.90;;;2.20;;
56824;SDS011;42705;50.326;18.772;2023-05-13T16:56:26;5.40;;;2.40;;
56824;SDS011;42705;50.326;18.772;2023-05-13T17:01:48;4.30;;;1.90;;
56824;SDS011;42705;50.326;18.772;2023-05-13T17:07:11;5.20;;;2.60;;
56824;SDS011;42705;50.326;18.772;2023-05-13T17:12:33;2.80;;;1.90;;
56824;SDS011;42705;50.326;18.772;2023-05-13T17:17:55;5.70;;;2.30;;
56824;SDS011;42705;50.326;18.772;2023-05-13T17:23:17;4.80;;;2.70;;
56824;SDS011;42705;50.326;18.772;2023-05-13T17:28:39;4.80;;;2.50;;
56824;SDS011;42705;50.326;18.772;2023-05-13T17:34:01;3.40;;;2.30;;
56824;SDS011;42705;50.326;18.772;2023-05-13T17:39:23;3.90;;;2.90;;
56824;SDS011;42705;50.326;18.772;2023-05-13T17:44:46;6.40;;;2.70;;
56824;SDS011;42705;50.326;18.772;2023-05-13T17:50:08;7.70;;;3.30;;
56824;SDS011;42705;50.326;18.772;2023-05-13T17:55:31;5.10;;;3.20;;
56824;SDS011;42705;50.326;18.772;2023-05-13T18:00:53;6.60;;;3.60;;
56824;SDS011;42705;50.326;18.772;2023-05-13T18:06:17;5.90;;;4.00;;
56824;SDS011;42705;50.326;18.772;2023-05-13T18:11:39;6.90;;;3.90;;
56824;SDS011;42705;50.326;18.772;2023-05-13T18:17:01;5.50;;;4.10;;
56824;SDS011;42705;50.326;18.772;2023-05-13T18:22:23;5.80;;;4.50;;
56824;SDS011;42705;50.326;18.772;2023-05-13T18:27:46;10.40;;;4.40;;
56824;SDS011;42705;50.326;18.772;2023-05-13T18:33:10;10.50;;;5.80;;
56824;SDS011;42705;50.326;18.772;2023-05-13T18:38:32;11.90;;;6.10;;
56824;SDS011;42705;50.326;18.772;2023-05-13T18:43:55;11.10;;;6.10;;
56824;SDS011;42705;50.326;18.772;2023-05-13T18:49:18;16.30;;;6.30;;
56824;SDS011;42705;50.326;18.772;2023-05-13T18:54:40;14.10;;;6.70;;
56824;SDS011;42705;50.326;18.772;2023-05-13T19:00:04;14.60;;;8.10;;
56824;SDS011;42705;50.326;18.772;2023-05-13T19:05:27;15.50;;;8.90;;
56824;SDS011;42705;50.326;18.772;2023-05-13T19:10:49;14.40;;;8.30;;
56824;SDS011;42705;50.326;18.772;2023-05-13T19:16:12;14.00;;;7.80;;
56824;SDS011;42705;50.326;18.772;2023-05-13T19:21:34;16.70;;;8.20;;
56824;SDS011;42705;50.326;18.772;2023-05-13T19:26:56;17.10;;;9.60;;
56824;SDS011;42705;50.326;18.772;2023-05-13T19:32:19;14.90;;;8.10;;
56824;SDS011;42705;50.326;18.772;2023-05-13T19:37:41;14.60;;;8.00;;
56824;SDS011;42705;50.326;18.772;2023-05-13T19:43:04;14.60;;;8.30;;
56824;SDS011;42705;50.326;18.772;2023-05-13T19:48:28;13.40;;;7.50;;
56824;SDS011;42705;50.326;18.772;2023-05-13T19:53:51;11.50;;;6.40;;
56824;SDS011;42705;50.326;18.772;2023-05-13T19:59:13;10.00;;;6.20;;
56824;SDS011;42705;50.326;18.772;2023-05-13T20:04:36;11.10;;;6.80;;
56824;SDS011;42705;50.326;18.772;2023-05-13T20:09:59;11.90;;;7.00;;
56824;SDS011;42705;50.326;18.772;2023-05-13T20:15:22;10.80;;;7.10;;
56824;SDS011;42705;50.326;18.772;2023-05-13T20:20:44;13.60;;;8.10;;
56824;SDS011;42705;50.326;18.772;2023-05-13T20:36:53;12.00;;;7.10;;
56824;SDS011;42705;50.326;18.772;2023-05-13T20:42:15;10.90;;;6.80;;
56824;SDS011;42705;50.326;18.772;2023-05-13T20:47:44;11.60;;;7.20;;
56824;SDS011;42705;50.326;18.772;2023-05-13T20:53:07;11.40;;;8.20;;
56824;SDS011;42705;50.326;18.772;2023-05-13T20:58:29;11.00;;;7.60;;
56824;SDS011;42705;50.326;18.772;2023-05-13T21:03:51;12.80;;;8.20;;
56824;SDS011;42705;50.326;18.772;2023-05-13T21:09:14;15.90;;;8.50;;
56824;SDS011;42705;50.326;18.772;2023-05-13T21:14:36;15.80;;;8.90;;
56824;SDS011;42705;50.326;18.772;2023-05-13T21:19:58;15.70;;;8.50;;
56824;SDS011;42705;50.326;18.772;2023-05-13T21:25:20;18.50;;;8.40;;
56824;SDS011;42705;50.326;18.772;2023-05-13T21:30:43;14.30;;;8.40;;
56824;SDS011;42705;50.326;18.772;2023-05-13T21:36:05;18.90;;;8.60;;
56824;SDS011;42705;50.326;18.772;2023-05-13T21:41:27;14.00;;;8.50;;
56824;SDS011;42705;50.326;18.772;2023-05-13T21:46:49;15.80;;;9.30;;
56824;SDS011;42705;50.326;18.772;2023-05-13T21:52:11;16.30;;;10.00;;
56824;SDS011;42705;50.326;18.772;2023-05-13T21:57:33;21.60;;;10.20;;
56824;SDS011;42705;50.326;18.772;2023-05-13T22:02:55;21.80;;;11.40;;
56824;SDS011;42705;50.326;18.772;2023-05-13T22:08:17;21.70;;;11.60;;
56824;SDS011;42705;50.326;18.772;2023-05-13T22:13:39;22.50;;;12.10;;
56824;SDS011;42705;50.326;18.772;2023-05-13T22:19:01;21.30;;;12.00;;
56824;SDS011;42705;50.326;18.772;2023-05-13T22:24:24;19.30;;;10.90;;
56824;SDS011;42705;50.326;18.772;2023-05-13T22:29:47;22.20;;;11.00;;
56824;SDS011;42705;50.326;18.772;2023-05-13T22:35:09;18.90;;;10.20;;
56824;SDS011;42705;50.326;18.772;2023-05-13T22:40:31;21.10;;;11.10;;
56824;SDS011;42705;50.326;18.772;2023-05-13T22:45:53;22.10;;;11.80;;
56824;SDS011;42705;50.326;18.772;2023-05-13T22:51:15;17.70;;;10.50;;
56824;SDS011;42705;50.326;18.772;2023-05-13T22:56:37;21.80;;;11.80;;
56824;SDS011;42705;50.326;18.772;2023-05-13T23:01:58;22.40;;;11.60;;
56824;SDS011;42705;50.326;18.772;2023-05-13T23:07:20;22.10;;;12.40;;
56824;SDS011;42705;50.326;18.772;2023-05-13T23:12:42;18.40;;;10.10;;
56824;SDS011;42705;50.326;18.772;2023-05-13T23:18:04;17.20;;;10.50;;
56824;SDS011;42705;50.326;18.772;2023-05-13T23:23:26;16.40;;;9.30;;
56824;SDS011;42705;50.326;18.772;2023-05-13T23:28:48;20.10;;;9.70;;
56824;SDS011;42705;50.326;18.772;2023-05-13T23:34:10;22.90;;;10.30;;
56824;SDS011;42705;50.326;18.772;2023-05-13T23:39:32;26.10;;;11.70;;
56824;SDS011;42705;50.326;18.772;2023-05-13T23:44:54;32.00;;;12.70;;
56824;SDS011;42705;50.326;18.772;2023-05-13T23:50:16;21.40;;;12.30;;
56824;SDS011;42705;50.326;18.772;2023-05-13T23:55:38;25.50;;;12.60;;
